Time;durP1;ratioP1;P1;durP2;ratioP2;P2;SDS_P1;SDS_P2;PMS_P1;PMS_P2;Temp;Humidity;BMP_temperature;BMP_pressure;BME280_temperature;BME280_humidity;BME280_pressure;Samples;Min_cycle;Max_cycle;Signal;HPM_P1;HPM_P2
2023/09/14 00:01:03;;;;;;;8.73;4.68;;;;;;;22.88;60.22;98951.47;4369119;32;35097;-84
2023/09/14 00:03:31;;;;;;;6.35;4.65;;;;;;;22.74;60.43;98952.91;4368874;32;34413;-86
2023/09/14 00:05:59;;;;;;;7.07;4.50;;;;;;;22.92;60.06;98954.00;4371309;32;33131;-87
2023/09/14 00:08:30;;;;;;;10.98;4.55;;;;;;;22.73;61.06;98948.56;4375405;32;34048;-83
2023/09/14 00:10:59;;;;;;;8.57;4.65;;;;;;;22.43;62.52;98949.78;4374929;32;34674;-84
2023/09/14 00:13:27;;;;;;;7.32;4.45;;;;;;;22.31;63.45;98956.37;4380146;32;33162;-82
2023/09/14 00:15:55;;;;;;;8.15;4.62;;;;;;;22.47;62.92;98946.94;4364356;32;33518;-84
2023/09/14 00:18:23;;;;;;;9.18;4.70;;;;;;;22.05;64.81;98954.69;4362369;32;34801;-90
2023/09/14 00:20:52;;;;;;;12.90;5.60;;;;;;;21.60;66.40;98950.19;4362197;32;34328;-83
2023/09/14 00:23:21;;;;;;;11.35;4.93;;;;;;;21.84;65.89;98946.63;4364275;32;33748;-86
2023/09/14 00:25:49;;;;;;;9.98;5.20;;;;;;;21.77;66.20;98942.50;4372114;32;34401;-85
2023/09/14 00:28:18;;;;;;;9.68;5.97;;;;;;;21.87;65.94;98940.41;4360555;32;34172;-84
2023/09/14 00:30:46;;;;;;;9.25;5.30;;;;;;;21.62;67.11;98935.13;4367042;32;33472;-84
2023/09/14 00:33:14;;;;;;;9.25;5.40;;;;;;;21.69;67.01;98936.66;4361702;32;33641;-85
2023/09/14 00:35:45;;;;;;;11.00;6.30;;;;;;;21.62;67.16;98943.91;4375443;32;34324;-84
2023/09/14 00:38:12;;;;;;;15.57;6.20;;;;;;;21.71;66.73;98945.38;4371351;32;35631;-83
2023/09/14 00:40:40;;;;;;;8.30;5.45;;;;;;;21.92;66.22;98933.16;4369043;32;35025;-85
2023/09/14 00:43:08;;;;;;;12.68;6.03;;;;;;;21.70;67.19;98932.22;4369229;32;33844;-84
2023/09/14 00:45:35;;;;;;;10.48;6.00;;;;;;;21.71;66.95;98932.19;4348275;32;34023;-85
2023/09/14 00:48:03;;;;;;;10.40;5.85;;;;;;;21.90;66.31;98928.88;4358582;32;34256;-86
2023/09/14 00:50:31;;;;;;;10.25;5.85;;;;;;;21.58;67.52;98920.34;4360795;32;34275;-87
2023/09/14 00:53:07;;;;;;;11.10;5.95;;;;;;;21.87;66.37;98904.31;4345745;32;33628;-86
2023/09/14 00:55:35;;;;;;;11.38;5.53;;;;;;;21.73;66.97;98911.00;4368853;32;35273;-87
2023/09/14 00:58:03;;;;;;;11.93;6.12;;;;;;;21.07;69.50;98889.59;4370226;32;34991;-87
2023/09/14 01:00:32;;;;;;;8.57;6.22;;;;;;;21.27;68.99;98884.47;4353151;32;34163;-86
2023/09/14 01:03:00;;;;;;;8.85;5.80;;;;;;;21.55;67.81;98886.16;4345341;33;33981;-87
2023/09/14 01:05:30;;;;;;;10.32;5.53;;;;;;;21.50;68.16;98885.47;4352207;32;35180;-85
2023/09/14 01:07:58;;;;;;;7.95;5.47;;;;;;;21.73;67.19;98869.66;4360083;32;34605;-86
2023/09/14 01:10:26;;;;;;;8.73;6.55;;;;;;;21.77;67.05;98881.81;4353641;32;34347;-86
2023/09/14 01:12:53;;;;;;;9.10;6.05;;;;;;;21.77;67.00;98889.72;4345600;32;33446;-87
2023/09/14 01:15:44;;;;;;;10.00;6.18;;;;;;;21.70;67.46;98895.28;4355955;32;34672;-86
2023/09/14 01:18:18;;;;;;;8.98;6.20;;;;;;;21.79;66.76;98901.09;4354045;32;34093;-86
2023/09/14 01:21:09;;;;;;;9.65;6.00;;;;;;;21.93;66.30;98889.16;4357421;32;34426;-85
2023/09/14 01:23:50;;;;;;;7.87;5.95;;;;;;;21.83;66.68;98881.59;4347473;32;34906;-84
2023/09/14 01:26:18;;;;;;;8.30;6.28;;;;;;;21.93;66.35;98881.22;4352883;32;35741;-83
2023/09/14 01:28:46;;;;;;;7.65;5.47;;;;;;;21.76;66.91;98885.38;4360135;32;35830;-83
2023/09/14 01:31:14;;;;;;;9.63;6.43;;;;;;;21.67;67.30;98888.37;4352910;32;35247;-85
2023/09/14 01:33:41;;;;;;;9.60;6.18;;;;;;;21.43;68.12;98887.47;4345687;32;33207;-84
2023/09/14 01:36:18;;;;;;;9.55;6.12;;;;;;;21.86;66.53;98867.44;4367131;32;35301;-84
2023/09/14 01:38:46;;;;;;;7.43;5.50;;;;;;;21.22;68.93;98875.88;4370554;32;34567;-84
2023/09/14 01:41:14;;;;;;;8.82;6.05;;;;;;;21.57;67.86;98871.16;4345511;32;34128;-84
2023/09/14 01:43:44;;;;;;;10.48;6.57;;;;;;;21.78;66.79;98864.19;4371242;32;34802;-85
2023/09/14 01:46:11;;;;;;;7.28;5.95;;;;;;;21.43;68.20;98865.50;4358581;32;34059;-85
2023/09/14 01:48:39;;;;;;;8.57;5.68;;;;;;;21.45;68.04;98866.31;4358812;32;35072;-84
2023/09/14 01:51:06;;;;;;;10.27;5.80;;;;;;;21.47;67.92;98865.31;4357230;32;33927;-85
2023/09/14 01:53:34;;;;;;;9.88;5.55;;;;;;;21.20;68.87;98868.94;4359236;32;34914;-85
2023/09/14 01:56:02;;;;;;;11.10;5.90;;;;;;;21.27;68.68;98884.47;4360266;32;34201;-86
2023/09/14 01:58:32;;;;;;;7.60;5.97;;;;;;;21.13;69.47;98878.81;4360183;32;34585;-85
2023/09/14 02:00:59;;;;;;;8.48;5.87;;;;;;;20.95;70.57;98890.88;4359754;32;33892;-84
2023/09/14 02:03:27;;;;;;;9.35;5.95;;;;;;;21.15;69.94;98887.53;4358856;32;34040;-85
2023/09/14 02:05:58;;;;;;;8.70;6.20;;;;;;;21.10;69.96;98885.06;4356154;32;34402;-90
2023/09/14 02:08:30;;;;;;;9.10;5.95;;;;;;;21.06;70.58;98885.22;4368338;32;33772;-90
2023/09/14 02:10:57;;;;;;;9.93;6.90;;;;;;;21.04;70.58;98879.16;4368299;32;33986;-87
2023/09/14 02:13:29;;;;;;;8.98;6.32;;;;;;;21.09;70.54;98893.88;4344862;33;33318;-84
2023/09/14 02:15:56;;;;;;;9.70;6.32;;;;;;;21.00;70.92;98902.09;4350589;32;34107;-85
2023/09/14 02:18:24;;;;;;;9.27;6.62;;;;;;;20.90;71.55;98898.91;4346649;32;36066;-85
2023/09/14 02:20:52;;;;;;;9.70;6.37;;;;;;;20.97;71.45;98888.16;4359563;32;35433;-85
2023/09/14 02:23:19;;;;;;;9.93;5.68;;;;;;;20.95;71.60;98905.78;4351894;32;33620;-83
2023/09/14 02:25:49;;;;;;;8.88;5.85;;;;;;;20.98;71.37;98911.81;4353872;32;34536;-85
2023/09/14 02:28:19;;;;;;;10.30;6.72;;;;;;;21.01;71.25;98900.34;4356911;32;35582;-85
2023/09/14 02:30:47;;;;;;;9.93;6.78;;;;;;;21.19;70.45;98907.62;4357115;32;34539;-86
2023/09/14 02:33:15;;;;;;;9.55;6.05;;;;;;;20.96;71.49;98907.53;4355646;32;34024;-87
2023/09/14 02:35:50;;;;;;;9.13;6.03;;;;;;;20.85;71.63;98906.13;4357251;32;34169;-86
2023/09/14 02:38:18;;;;;;;7.68;5.60;;;;;;;21.07;70.47;98902.78;4359112;32;34574;-86
2023/09/14 02:40:46;;;;;;;7.97;5.90;;;;;;;20.81;71.71;98899.22;4366551;32;35111;-86
2023/09/14 02:43:14;;;;;;;11.63;6.12;;;;;;;20.34;73.92;98904.22;4374232;32;34837;-85
2023/09/14 02:45:41;;;;;;;10.38;6.00;;;;;;;20.85;72.01;98907.91;4372766;32;34393;-85
2023/09/14 02:48:09;;;;;;;9.35;5.80;;;;;;;21.22;70.28;98904.03;4359919;32;35633;-86
2023/09/14 02:50:36;;;;;;;8.13;6.10;;;;;;;20.74;72.31;98907.38;4373075;32;35338;-86
2023/09/14 02:53:04;;;;;;;7.97;5.65;;;;;;;20.83;71.97;98910.56;4373310;32;33243;-85
2023/09/14 02:55:34;;;;;;;7.70;5.85;;;;;;;20.86;71.73;98910.47;4374798;32;34523;-85
2023/09/14 02:58:06;;;;;;;7.50;5.93;;;;;;;20.98;71.25;98917.09;4356224;32;34590;-88
2023/09/14 03:00:34;;;;;;;8.10;5.87;;;;;;;20.71;72.60;98912.75;4373300;32;34357;-86
2023/09/14 03:03:02;;;;;;;8.23;5.45;;;;;;;21.09;71.28;98908.84;4375015;32;33746;-85
2023/09/14 03:05:30;;;;;;;8.40;5.90;;;;;;;21.03;71.19;98914.34;4360249;32;35057;-87
2023/09/14 03:07:58;;;;;;;10.75;5.95;;;;;;;20.76;72.50;98911.69;4361221;32;34299;-86
2023/09/14 03:10:25;;;;;;;9.35;5.87;;;;;;;21.19;70.71;98907.62;4371478;32;35308;-90
2023/09/14 03:12:53;;;;;;;9.73;6.05;;;;;;;20.97;71.55;98918.03;4375614;32;33742;-86
2023/09/14 03:15:21;;;;;;;8.18;5.72;;;;;;;21.19;70.64;98915.53;4374981;32;35390;-86
2023/09/14 03:17:50;;;;;;;9.63;5.75;;;;;;;20.91;71.91;98910.34;4376055;32;34430;-87
2023/09/14 03:20:17;;;;;;;9.52;5.40;;;;;;;20.94;71.51;98919.91;4359894;32;34249;-86
2023/09/14 03:22:45;;;;;;;8.50;6.60;;;;;;;20.85;71.95;98914.03;4358561;32;34969;-85
2023/09/14 03:25:12;;;;;;;8.30;5.32;;;;;;;21.03;71.28;98909.06;4370704;32;34197;-86
2023/09/14 03:27:40;;;;;;;7.93;6.37;;;;;;;21.01;71.23;98913.50;4361251;32;35771;-85
2023/09/14 03:30:08;;;;;;;10.73;6.45;;;;;;;20.94;71.80;98920.75;4374183;32;33809;-86
2023/09/14 03:32:36;;;;;;;9.73;5.97;;;;;;;20.89;71.91;98918.28;4374808;32;33713;-86
2023/09/14 03:35:04;;;;;;;7.72;5.80;;;;;;;20.92;71.92;98921.72;4375384;32;34451;-86
2023/09/14 03:37:31;;;;;;;8.50;5.97;;;;;;;20.81;72.19;98920.31;4375625;32;34479;-85
2023/09/14 03:39:59;;;;;;;10.63;6.05;;;;;;;20.63;73.12;98923.53;4374702;32;33606;-85
2023/09/14 03:42:29;;;;;;;7.10;5.22;;;;;;;20.65;73.11;98921.72;4359013;32;33763;-85
2023/09/14 03:44:57;;;;;;;7.37;5.37;;;;;;;20.88;72.01;98916.56;4373942;32;33543;-84
2023/09/14 03:47:24;;;;;;;8.25;5.97;;;;;;;20.64;73.11;98930.50;4373664;32;33949;-85
2023/09/14 03:49:52;;;;;;;8.85;5.82;;;;;;;20.59;73.28;98928.03;4361860;32;34570;-86
2023/09/14 03:52:19;;;;;;;10.20;5.18;;;;;;;20.92;71.88;98932.28;4374541;32;34034;-86
2023/09/14 03:54:47;;;;;;;8.38;5.57;;;;;;;20.74;72.39;98924.06;4372673;32;35313;-86
2023/09/14 03:57:14;;;;;;;7.45;5.12;;;;;;;20.68;72.83;98933.91;4335749;32;34621;-85
2023/09/14 03:59:43;;;;;;;8.40;5.70;;;;;;;20.88;71.80;98935.00;4360906;32;34332;-85
2023/09/14 04:02:10;;;;;;;7.85;5.57;;;;;;;20.55;73.60;98942.22;4361023;32;34949;-85
2023/09/14 04:04:42;;;;;;;8.52;6.68;;;;;;;20.57;73.78;98947.41;4360726;32;34378;-86
2023/09/14 04:07:09;;;;;;;9.75;6.57;;;;;;;20.19;75.68;98954.69;4371618;32;34580;-86
2023/09/14 04:09:37;;;;;;;8.95;7.05;;;;;;;20.38;75.02;98953.25;4360854;32;34504;-86
2023/09/14 04:12:05;;;;;;;8.95;7.62;;;;;;;20.39;74.68;98952.31;4360747;32;33744;-85
2023/09/14 04:14:32;;;;;;;11.55;8.10;;;;;;;20.40;74.81;98947.91;4375725;32;35337;-84
2023/09/14 04:17:01;;;;;;;9.02;8.10;;;;;;;20.40;74.88;98967.22;4375753;32;34419;-89
2023/09/14 04:19:29;;;;;;;10.85;8.57;;;;;;;20.32;75.40;98961.31;4375685;32;35355;-88
2023/09/14 04:21:57;;;;;;;12.15;9.27;;;;;;;20.58;74.19;98959.69;4373474;32;33886;-82
2023/09/14 04:24:27;;;;;;;12.95;10.27;;;;;;;20.52;74.28;98958.09;4375195;32;34232;-85
2023/09/14 04:26:54;;;;;;;12.10;10.80;;;;;;;20.37;75.11;98959.41;4375785;32;34632;-86
2023/09/14 04:29:22;;;;;;;11.60;10.27;;;;;;;20.42;74.93;98961.91;4352351;32;35202;-86
2023/09/14 04:31:49;;;;;;;12.25;10.65;;;;;;;20.48;74.81;98966.97;4375642;32;33692;-86
2023/09/14 04:34:17;;;;;;;12.25;10.77;;;;;;;20.35;75.28;98952.47;4375593;32;34490;-84
2023/09/14 04:36:45;;;;;;;12.40;11.10;;;;;;;20.32;75.45;98968.34;4370345;32;35834;-85
2023/09/14 04:39:12;;;;;;;14.73;10.70;;;;;;;19.85;77.98;98974.09;4371786;32;33837;-85
2023/09/14 04:41:44;;;;;;;12.75;11.20;;;;;;;19.95;77.57;98969.41;4371334;32;34917;-89
2023/09/14 04:44:12;;;;;;;11.95;10.75;;;;;;;20.06;76.86;98975.25;4375442;32;34756;-86
2023/09/14 04:46:39;;;;;;;13.23;10.93;;;;;;;20.48;74.78;98974.88;4355362;32;34160;-87
2023/09/14 04:49:07;;;;;;;12.27;10.65;;;;;;;20.07;76.65;98973.47;4360515;32;34622;-86
2023/09/14 04:51:34;;;;;;;12.05;9.45;;;;;;;20.33;75.51;98970.94;4360696;32;33585;-85
2023/09/14 04:54:03;;;;;;;14.05;9.75;;;;;;;20.69;73.79;98976.03;4360586;32;33566;-88
2023/09/14 04:56:30;;;;;;;11.38;10.18;;;;;;;20.27;75.37;98972.91;4367645;32;34506;-84
2023/09/14 04:58:58;;;;;;;11.98;9.73;;;;;;;20.55;74.12;98975.59;4363289;32;34228;-87
2023/09/14 05:01:25;;;;;;;11.00;9.77;;;;;;;20.68;73.30;98976.06;4360522;32;32231;-86
2023/09/14 05:03:53;;;;;;;11.98;9.57;;;;;;;20.30;74.91;98986.81;4361703;32;34439;-86
2023/09/14 05:06:21;;;;;;;12.10;8.90;;;;;;;20.70;73.00;98980.37;4375312;32;33785;-87
2023/09/14 05:08:48;;;;;;;10.88;9.35;;;;;;;20.71;72.95;98981.25;4373328;32;35305;-89
2023/09/14 05:11:16;;;;;;;10.85;8.95;;;;;;;20.47;73.88;98991.59;4360488;32;33951;-91
2023/09/14 05:13:44;;;;;;;11.00;9.05;;;;;;;20.47;74.15;98988.09;4360473;32;35365;-85
2023/09/14 05:16:13;;;;;;;11.30;8.80;;;;;;;20.54;73.87;98985.28;4359920;32;34326;-89
2023/09/14 05:18:41;;;;;;;10.65;8.75;;;;;;;20.66;73.21;98981.38;4360194;32;34084;-89
2023/09/14 05:21:08;;;;;;;11.02;8.60;;;;;;;20.60;73.39;98984.19;4361387;32;33201;-86
2023/09/14 05:23:36;;;;;;;10.52;8.50;;;;;;;20.71;73.06;98987.37;4360374;32;34138;-89
2023/09/14 05:26:03;;;;;;;10.90;8.40;;;;;;;20.89;72.07;98983.28;4360365;32;35762;-88
2023/09/14 05:28:31;;;;;;;10.40;7.75;;;;;;;21.09;71.25;98982.63;4360487;32;33851;-86
2023/09/14 05:30:58;;;;;;;8.63;7.50;;;;;;;20.77;72.46;98987.19;4371443;32;33752;-87
2023/09/14 05:33:26;;;;;;;9.10;7.45;;;;;;;21.17;70.94;98988.50;4371210;32;34527;-87
2023/09/14 05:35:54;;;;;;;11.12;8.35;;;;;;;21.08;71.30;98992.31;4361038;32;34600;-91
2023/09/14 05:38:22;;;;;;;9.45;7.22;;;;;;;21.16;70.93;98984.16;4363846;32;34560;-86
2023/09/14 05:40:52;;;;;;;11.02;7.62;;;;;;;21.40;69.89;98986.91;4374952;32;34206;-88
2023/09/14 05:43:19;;;;;;;10.38;8.30;;;;;;;21.19;71.08;98989.34;4375131;32;34182;-89
2023/09/14 05:45:50;;;;;;;9.27;7.43;;;;;;;21.36;70.28;98994.94;4361777;32;35383;-87
2023/09/14 05:48:18;;;;;;;10.57;8.18;;;;;;;21.16;71.39;98993.84;4362914;32;34318;-90
2023/09/14 05:50:46;;;;;;;9.07;7.45;;;;;;;21.18;71.02;98992.03;4360051;32;34115;-87
2023/09/14 05:53:14;;;;;;;9.80;7.40;;;;;;;21.49;69.84;98998.03;4360124;32;34413;-88
2023/09/14 05:55:42;;;;;;;10.48;7.70;;;;;;;21.70;69.20;98996.41;4359984;32;34348;-88
2023/09/14 05:58:11;;;;;;;12.05;7.65;;;;;;;21.71;69.10;98998.16;4360064;32;34376;-88
2023/09/14 06:00:38;;;;;;;11.75;8.18;;;;;;;21.39;70.46;98993.97;4360144;32;33807;-88
2023/09/14 06:03:06;;;;;;;11.63;8.13;;;;;;;21.33;71.06;98995.06;4360042;32;34106;-89
2023/09/14 06:05:33;;;;;;;9.80;7.60;;;;;;;21.13;71.53;98995.66;4371158;32;33933;-87
2023/09/14 06:08:01;;;;;;;8.65;7.57;;;;;;;21.33;71.03;98997.69;4359916;32;33697;-88
2023/09/14 06:10:29;;;;;;;9.30;7.15;;;;;;;21.19;71.66;98994.63;4360027;32;33987;-86
2023/09/14 06:12:57;;;;;;;9.30;7.43;;;;;;;21.91;69.25;98997.44;4359975;32;34129;-89
2023/09/14 06:15:25;;;;;;;9.48;7.18;;;;;;;21.40;70.97;98998.31;4359749;32;35047;-88
2023/09/14 06:17:53;;;;;;;9.68;7.03;;;;;;;21.28;71.72;99002.22;4361339;32;34800;-88
2023/09/14 06:20:20;;;;;;;11.15;6.35;;;;;;;21.61;69.96;98992.31;4348073;32;33462;-88
2023/09/14 06:22:48;;;;;;;9.55;6.65;;;;;;;21.69;69.95;99002.59;4372276;32;35238;-88
2023/09/14 06:25:16;;;;;;;8.82;6.43;;;;;;;21.89;69.15;99003.66;4360823;32;34989;-88
2023/09/14 06:27:44;;;;;;;9.95;6.22;;;;;;;21.93;69.53;99018.47;4361173;32;34646;-90
2023/09/14 06:30:12;;;;;;;14.00;6.18;;;;;;;21.81;69.69;99017.13;4373700;32;34578;-88
2023/09/14 06:32:39;;;;;;;7.53;5.60;;;;;;;21.84;69.40;99019.69;4374858;32;33851;-89
2023/09/14 06:35:08;;;;;;;8.25;6.20;;;;;;;21.68;69.68;99026.41;4360822;32;33100;-88
2023/09/14 06:37:35;;;;;;;8.98;5.62;;;;;;;22.14;68.09;99024.81;4362811;32;34749;-88
2023/09/14 06:40:05;;;;;;;7.15;5.32;;;;;;;22.38;67.28;99025.66;4373979;32;33470;-90
2023/09/14 06:42:34;;;;;;;8.65;5.93;;;;;;;22.38;67.45;99025.66;4349153;32;32449;-89
2023/09/14 06:45:03;;;;;;;9.38;5.72;;;;;;;22.79;66.37;99022.28;4363048;32;33691;-89
2023/09/14 06:47:30;;;;;;;9.23;5.65;;;;;;;22.74;66.57;99023.41;4373464;32;33501;-88
2023/09/14 06:49:58;;;;;;;13.13;5.35;;;;;;;23.08;64.64;99022.97;4363617;32;33618;-88
2023/09/14 06:52:25;;;;;;;9.48;5.22;;;;;;;22.78;65.31;99025.00;4363068;32;33851;-89
2023/09/14 06:54:53;;;;;;;9.13;5.82;;;;;;;22.77;65.42;99028.59;4364021;32;33589;-87
2023/09/14 06:57:20;;;;;;;7.10;5.25;;;;;;;22.71;65.78;99032.31;4373769;32;34245;-90
2023/09/14 06:59:48;;;;;;;8.80;5.97;;;;;;;22.98;64.57;99037.47;4374766;32;33262;-88
2023/09/14 07:02:16;;;;;;;9.35;5.70;;;;;;;23.03;64.17;99040.78;4363728;32;33753;-87
2023/09/14 07:04:43;;;;;;;8.18;5.43;;;;;;;23.15;63.94;99045.59;4363532;32;33859;-88
2023/09/14 07:07:13;;;;;;;7.28;5.68;;;;;;;23.00;65.01;99046.22;4364178;32;34689;-87
2023/09/14 07:09:40;;;;;;;9.32;5.25;;;;;;;22.80;65.54;99047.78;4363944;32;33391;-90
2023/09/14 07:12:08;;;;;;;9.40;6.10;;;;;;;23.45;63.27;99047.87;4363722;32;34912;-84
2023/09/14 07:14:36;;;;;;;8.35;5.28;;;;;;;23.43;62.95;99060.31;4362227;32;33972;-88
2023/09/14 07:17:04;;;;;;;7.87;5.65;;;;;;;23.17;62.72;99059.59;4361297;32;33917;-89
2023/09/14 07:19:31;;;;;;;7.03;5.70;;;;;;;23.01;64.04;99061.16;4372450;32;32983;-89
2023/09/14 07:21:59;;;;;;;8.10;4.87;;;;;;;23.09;63.86;99068.78;4361095;32;34914;-89
2023/09/14 07:24:27;;;;;;;7.62;5.15;;;;;;;23.30;63.41;99075.84;4361448;32;34197;-88
2023/09/14 07:26:55;;;;;;;9.98;5.25;;;;;;;23.52;62.14;99065.22;4347890;32;33626;-90
2023/09/14 07:29:22;;;;;;;8.13;5.68;;;;;;;23.85;60.91;99075.34;4361044;32;34070;-88
2023/09/14 07:31:51;;;;;;;10.50;6.18;;;;;;;23.23;62.87;99074.38;4361496;32;33896;-89
2023/09/14 07:34:19;;;;;;;10.20;5.93;;;;;;;23.09;63.70;99077.56;4361188;32;35093;-90
2023/09/14 07:36:47;;;;;;;7.40;4.78;;;;;;;23.32;62.62;99076.63;4360986;32;34597;-89
2023/09/14 07:39:14;;;;;;;8.50;5.53;;;;;;;23.50;62.83;99078.53;4360926;32;33481;-88
2023/09/14 07:41:42;;;;;;;8.88;5.97;;;;;;;23.50;62.63;99075.03;4347325;32;33896;-88
2023/09/14 07:44:09;;;;;;;10.18;6.72;;;;;;;23.76;61.87;99082.78;4361060;32;33862;-87
2023/09/14 07:46:37;;;;;;;9.00;6.85;;;;;;;23.69;61.35;99078.66;4361160;32;33519;-87
2023/09/14 07:49:05;;;;;;;9.98;6.20;;;;;;;23.20;64.29;99090.38;4360837;32;33487;-88
2023/09/14 07:51:33;;;;;;;9.50;6.25;;;;;;;23.42;63.30;99091.22;4372104;32;34521;-87
2023/09/14 07:54:01;;;;;;;10.95;6.37;;;;;;;23.76;62.00;99093.34;4361060;32;34886;-88
2023/09/14 07:56:28;;;;;;;13.35;7.40;;;;;;;23.76;62.86;99096.00;4361303;32;33437;-90
2023/09/14 07:58:56;;;;;;;11.55;7.10;;;;;;;23.28;64.21;99097.06;4361020;32;33366;-88
2023/09/14 08:01:24;;;;;;;11.32;7.37;;;;;;;23.64;64.16;99096.50;4361295;32;34108;-89
2023/09/14 08:03:51;;;;;;;8.55;7.10;;;;;;;23.56;63.32;99095.94;4360847;32;34124;-88
2023/09/14 08:06:21;;;;;;;10.52;8.25;;;;;;;23.97;62.57;99099.50;4361085;32;33649;-89
2023/09/14 08:08:53;;;;;;;8.95;7.53;;;;;;;23.48;63.20;99106.81;4360958;32;33509;-89
2023/09/14 08:11:21;;;;;;;11.18;7.72;;;;;;;23.39;63.42;99112.50;4360841;32;34395;-89
2023/09/14 08:13:48;;;;;;;10.73;7.68;;;;;;;23.91;62.20;99109.53;4347647;32;34190;-89
2023/09/14 08:16:16;;;;;;;14.60;7.45;;;;;;;24.21;60.35;99112.66;4360806;32;33793;-87
2023/09/14 08:18:44;;;;;;;9.55;6.90;;;;;;;24.37;59.99;99103.09;4360546;32;33636;-87
2023/09/14 08:21:11;;;;;;;8.85;6.40;;;;;;;24.49;59.24;99107.00;4360913;32;33987;-87
2023/09/14 08:23:39;;;;;;;8.60;6.60;;;;;;;24.39;60.61;99110.97;4360795;32;34054;-87
2023/09/14 08:26:07;;;;;;;9.80;7.18;;;;;;;24.10;61.25;99121.06;4372041;32;32485;-87
2023/09/14 08:28:35;;;;;;;8.20;6.60;;;;;;;23.74;62.18;99121.66;4360859;32;33255;-87
2023/09/14 08:31:02;;;;;;;9.70;7.10;;;;;;;24.32;60.11;99112.16;4359135;32;32786;-88
2023/09/14 08:33:31;;;;;;;8.40;6.35;;;;;;;24.12;61.20;99116.53;4360682;32;34095;-88
2023/09/14 08:35:58;;;;;;;9.02;6.75;;;;;;;24.18;61.74;99116.28;4360914;32;33684;-88
2023/09/14 08:38:26;;;;;;;11.02;7.00;;;;;;;24.26;61.70;99111.50;4360779;32;33452;-88
2023/09/14 08:40:57;;;;;;;11.07;7.22;;;;;;;24.33;60.78;99109.44;4360507;32;33950;-88
2023/09/14 08:43:25;;;;;;;8.50;6.60;;;;;;;24.05;60.80;99112.41;4347294;32;33983;-88
2023/09/14 08:45:53;;;;;;;10.15;6.93;;;;;;;24.12;61.05;99113.88;4361176;32;33641;-89
2023/09/14 08:48:22;;;;;;;9.93;6.90;;;;;;;24.46;59.36;99115.94;4347412;32;33366;-87
2023/09/14 08:50:52;;;;;;;8.48;6.93;;;;;;;24.32;60.09;99120.97;4371787;32;33903;-88
2023/09/14 08:53:20;;;;;;;8.57;7.15;;;;;;;23.94;60.62;99127.91;4358646;32;33581;-87
2023/09/14 08:55:47;;;;;;;8.85;6.25;;;;;;;24.11;59.41;99128.06;4359286;32;32115;-89
2023/09/14 08:58:16;;;;;;;10.18;6.40;;;;;;;24.50;59.10;99116.66;4359596;32;33685;-88
2023/09/14 09:00:44;;;;;;;8.63;6.22;;;;;;;24.79;57.90;99115.34;4371099;32;34897;-87
2023/09/14 09:03:13;;;;;;;9.65;6.97;;;;;;;24.82;57.61;99109.91;4359227;32;32781;-89
2023/09/14 09:05:41;;;;;;;12.73;6.35;;;;;;;25.01;57.03;99109.91;4347057;32;34749;-87
2023/09/14 09:08:09;;;;;;;8.07;6.22;;;;;;;25.15;56.46;99109.25;4371371;32;33040;-89
2023/09/14 09:10:38;;;;;;;11.93;7.47;;;;;;;25.29;56.33;99112.13;4347115;32;34019;-90
2023/09/14 09:13:06;;;;;;;8.25;6.30;;;;;;;25.26;55.42;99109.63;4360510;32;34330;-88
2023/09/14 09:15:36;;;;;;;8.13;6.25;;;;;;;25.32;55.05;99109.31;4360356;32;33923;-91
2023/09/14 09:18:07;;;;;;;10.85;6.87;;;;;;;25.38;55.86;99111.69;4347169;32;33859;-88
2023/09/14 09:20:40;;;;;;;8.90;5.80;;;;;;;25.58;55.38;99108.06;4346934;32;34897;-89
2023/09/14 09:23:09;;;;;;;9.02;5.80;;;;;;;25.86;53.73;99104.91;4371595;32;34840;-88
2023/09/14 09:25:44;;;;;;;8.95;6.18;;;;;;;25.40;54.59;99107.16;4359349;32;34592;-89
2023/09/14 09:28:12;;;;;;;7.43;5.95;;;;;;;24.91;54.89;99103.31;4360243;32;34241;-89
2023/09/14 09:30:40;;;;;;;8.05;5.90;;;;;;;24.74;55.17;99112.06;4360247;32;33620;-90
2023/09/14 09:33:08;;;;;;;9.50;6.15;;;;;;;24.74;55.46;99112.91;4371583;32;33903;-85
2023/09/14 09:35:35;;;;;;;9.20;5.93;;;;;;;24.59;55.55;99108.31;4360392;32;33731;-90
2023/09/14 09:38:14;;;;;;;8.15;6.43;;;;;;;24.55;55.71;99106.75;4346864;32;33456;-86
2023/09/14 09:40:44;;;;;;;10.68;5.85;;;;;;;24.86;55.85;99108.84;4371322;32;34001;-89
2023/09/14 09:43:16;;;;;;;8.27;5.62;;;;;;;25.15;54.89;99096.84;4347060;32;35131;-88
2023/09/14 09:45:46;;;;;;;7.43;5.57;;;;;;;25.56;53.82;99098.44;4346815;32;33442;-89
2023/09/14 09:48:14;;;;;;;9.43;5.20;;;;;;;25.76;52.81;99100.09;4346815;32;33680;-87
2023/09/14 09:50:42;;;;;;;7.97;5.82;;;;;;;26.17;51.02;99108.63;4346738;32;33871;-89
2023/09/14 09:53:13;;;;;;;8.48;5.97;;;;;;;25.77;52.52;99099.19;4368626;32;84506;-88
2023/09/14 09:55:43;;;;;;;9.90;5.68;;;;;;;26.09;50.94;99110.81;4370597;32;34251;-88
2023/09/14 09:58:10;;;;;;;7.22;5.15;;;;;;;25.69;52.63;99100.41;4370673;32;33686;-89
2023/09/14 10:00:39;;;;;;;9.43;6.22;;;;;;;25.88;52.18;99102.19;4360027;32;34106;-89
2023/09/14 10:03:07;;;;;;;8.52;6.53;;;;;;;25.33;54.66;99121.66;4361665;32;33870;-89
2023/09/14 10:05:39;;;;;;;10.07;5.65;;;;;;;25.19;55.35;99118.78;4364894;32;34600;-88
2023/09/14 10:08:19;;;;;;;8.25;6.45;;;;;;;25.56;55.31;99117.87;4351374;32;34065;-88
2023/09/14 10:10:51;;;;;;;10.02;6.85;;;;;;;25.87;53.82;99108.41;4375904;32;34791;-87
2023/09/14 10:13:24;;;;;;;9.38;6.57;;;;;;;25.89;53.73;99115.38;4375646;32;33702;-87
2023/09/14 10:15:53;;;;;;;10.60;6.62;;;;;;;26.00;54.25;99117.47;4376153;32;33226;-90
2023/09/14 10:18:23;;;;;;;8.95;6.75;;;;;;;25.92;53.89;99109.91;4376007;32;33008;-89
2023/09/14 10:20:52;;;;;;;9.82;6.37;;;;;;;25.54;54.78;99106.50;4375693;32;34007;-91
2023/09/14 10:23:21;;;;;;;7.68;6.10;;;;;;;26.00;54.50;99122.78;4376044;32;34850;-90
2023/09/14 10:25:51;;;;;;;11.43;6.78;;;;;;;25.93;54.23;99116.94;4364789;32;33595;-90
2023/09/14 10:28:22;;;;;;;10.90;6.70;;;;;;;25.68;54.64;99122.59;4364404;32;33297;-89
2023/09/14 10:30:52;;;;;;;9.32;6.35;;;;;;;25.67;55.46;99125.31;4364675;32;33681;-91
2023/09/14 10:33:20;;;;;;;9.65;7.20;;;;;;;25.34;56.61;99126.03;4364789;32;33925;-89
2023/09/14 10:35:50;;;;;;;10.43;6.25;;;;;;;25.44;56.53;99123.78;4351122;32;34043;-88
2023/09/14 10:38:23;;;;;;;9.20;6.93;;;;;;;25.71;55.36;99116.25;4375343;32;33489;-88
2023/09/14 10:40:52;;;;;;;9.98;7.20;;;;;;;26.04;55.54;99113.72;4364471;32;33418;-90
2023/09/14 10:43:20;;;;;;;8.20;5.60;;;;;;;25.98;53.07;99110.53;4350662;32;34188;-89
2023/09/14 10:45:50;;;;;;;10.98;5.30;;;;;;;26.02;53.14;99109.41;4375439;32;34731;-88
2023/09/14 10:48:19;;;;;;;9.23;5.70;;;;;;;26.04;53.05;99113.72;4364264;32;34310;-88
2023/09/14 10:50:51;;;;;;;8.93;5.12;;;;;;;26.33;50.52;99104.25;4364376;32;33956;-88
2023/09/14 10:53:22;;;;;;;7.35;4.82;;;;;;;26.23;51.51;99113.62;4351009;32;34505;-87
2023/09/14 10:55:50;;;;;;;8.85;5.65;;;;;;;26.12;52.25;99111.53;4364257;32;33970;-88
2023/09/14 10:58:18;;;;;;;10.20;5.22;;;;;;;26.36;52.02;99125.31;4375312;32;34388;-88
2023/09/14 11:00:47;;;;;;;8.25;5.03;;;;;;;25.98;53.91;99119.34;4362703;32;35162;-89
2023/09/14 11:03:24;;;;;;;8.98;5.10;;;;;;;25.69;53.73;99116.34;4374324;32;34034;-87
2023/09/14 11:05:53;;;;;;;8.48;5.57;;;;;;;25.67;53.69;99125.31;4363162;32;33791;-88
2023/09/14 11:08:26;;;;;;;11.23;5.65;;;;;;;25.70;53.30;99122.50;4364130;32;33163;-88
2023/09/14 11:10:56;;;;;;;8.27;5.03;;;;;;;25.50;54.46;99130.63;4350259;32;34041;-88
2023/09/14 11:13:28;;;;;;;9.73;5.32;;;;;;;25.13;55.27;99133.22;4374775;32;33814;-87
2023/09/14 11:16:04;;;;;;;9.80;5.20;;;;;;;25.31;55.33;99130.66;4360834;32;34426;-89
2023/09/14 11:18:35;;;;;;;8.70;5.03;;;;;;;25.21;55.05;99128.41;4359905;32;33334;-87
2023/09/14 11:21:03;;;;;;;7.05;5.05;;;;;;;25.51;54.73;99124.37;4361305;32;33797;-87
2023/09/14 11:23:36;;;;;;;7.30;4.97;;;;;;;25.50;54.71;99127.97;4372319;32;34241;-87
2023/09/14 11:26:05;;;;;;;9.88;5.47;;;;;;;25.79;53.44;99123.87;4361158;32;33063;-85
2023/09/14 11:28:49;;;;;;;8.15;5.82;;;;;;;25.51;55.05;99133.19;4370916;32;33903;-87
2023/09/14 11:31:29;;;;;;;8.60;5.25;;;;;;;25.44;54.80;99134.41;4361060;32;34318;-88
2023/09/14 11:34:18;;;;;;;7.10;4.60;;;;;;;25.52;54.48;99134.03;4361152;32;34167;-87
2023/09/14 11:36:52;;;;;;;7.25;5.03;;;;;;;25.31;53.70;99136.81;4371718;32;33584;-87